Terminal Aerodrome Forecast
Issued by NWS Paducah, KY

Home | Current Version | Previous Version | Text Only | Print | Product List | Glossary On
Versions: 1 2 3 4 5 6 7 8 9 10 11 12 13 14
553
FTUS43 KPAH 261120
TAFPAH
TAF
KPAH 261120Z 2612/2712 02004KT P6SM SCT150
     FM262300 36002KT P6SM SCT080 BKN130
     FM270200 03003KT P6SM VCSH BKN050=

USA.gov is the U.S. government's official web portal to all federal, state and local government web resources and services.